SBI7520 ZMUB-VVNB
Flight info
| Callsign | SBI7520 |
|---|---|
| Flight time | N/A |
| Altitude | 36100 |
| Route | ZMUB N0448F361 SER1B SER A573 MORIT B330 DAGDI W234 NIXID B330 QNX V86 BSE A599 ADBAG R471 MEOVA W22 DILEN DILE3J NB362 NB601 NB602 RW11L VVNB |
| Aircraft | B738/M-SDGIWZ/S |
Departure
| Time | 2026-05-07 12:18 |
|---|---|
| Airport | Buyant-Ukhaa International Airport (ZMUB) |
Arrival
| Time | N/A |
|---|---|
| Airport | Noi Bai International Airport (VVNB) |
| Time | Latitude | Longitude | Altitude | Speed | Heading |
|---|---|---|---|---|---|
| 2026-05-07 11:21 | 47.85214 | 106.76231 | 4373 ft | 0 kts | 47° |
| 2026-05-07 12:14 | 47.85207 | 106.76220 | 4373 ft | 3 kts | 47° |
| 2026-05-07 12:14 | 47.85184 | 106.76182 | 4373 ft | 6 kts | 47° |
| 2026-05-07 12:14 | 47.85144 | 106.76119 | 4373 ft | 10 kts | 47° |
| 2026-05-07 12:15 | 47.85086 | 106.76053 | 4373 ft | 8 kts | 3° |
| 2026-05-07 12:15 | 47.85048 | 106.76079 | 4373 ft | 3 kts | 315° |
| 2026-05-07 12:15 | 47.85058 | 106.76064 | 4373 ft | 8 kts | 316° |
| 2026-05-07 12:15 | 47.85134 | 106.75962 | 4373 ft | 21 kts | 319° |
| 2026-05-07 12:16 | 47.85158 | 106.75768 | 4373 ft | 22 kts | 237° |
| 2026-05-07 12:16 | 47.85148 | 106.75563 | 4373 ft | 23 kts | 311° |
| 2026-05-07 12:16 | 47.85276 | 106.75414 | 4373 ft | 20 kts | 322° |
| 2026-05-07 12:16 | 47.85256 | 106.75364 | 4373 ft | 13 kts | 145° |
| 2026-05-07 12:17 | 47.85007 | 106.75708 | 4373 ft | 83 kts | 138° |
| 2026-05-07 12:17 | 47.84417 | 106.76492 | 4373 ft | 141 kts | 138° |
| 2026-05-07 12:17 | 47.83573 | 106.77632 | 4408 ft | 183 kts | 138° |
| 2026-05-07 12:17 | 47.82690 | 106.78973 | 4952 ft | 181 kts | 116° |
| 2026-05-07 12:18 | 47.82692 | 106.80731 | 5397 ft | 182 kts | 54° |
| 2026-05-07 12:18 | 47.83780 | 106.81638 | 5670 ft | 195 kts | 359° |
| 2026-05-07 12:18 | 47.85110 | 106.80855 | 5726 ft | 225 kts | 313° |
| 2026-05-07 12:18 | 47.85811 | 106.78736 | 6139 ft | 238 kts | 283° |
| 2026-05-07 12:19 | 47.86214 | 106.76269 | 6447 ft | 256 kts | 292° |
| 2026-05-07 12:19 | 47.87061 | 106.73885 | 6976 ft | 266 kts | 306° |
| 2026-05-07 12:19 | 47.88242 | 106.71764 | 7588 ft | 273 kts | 315° |
| 2026-05-07 12:19 | 47.89429 | 106.69518 | 8203 ft | 281 kts | 297° |
| 2026-05-07 12:20 | 47.89837 | 106.66682 | 8884 ft | 287 kts | 266° |
| 2026-05-07 12:20 | 47.89188 | 106.63886 | 9549 ft | 294 kts | 236° |
| 2026-05-07 12:20 | 47.87642 | 106.61934 | 10147 ft | 302 kts | 205° |
| 2026-05-07 12:20 | 47.85536 | 106.61286 | 10366 ft | 323 kts | 177° |
| 2026-05-07 12:21 | 47.83364 | 106.62231 | 10485 ft | 342 kts | 148° |
| 2026-05-07 12:21 | 47.81558 | 106.64661 | 10650 ft | 358 kts | 128° |
| 2026-05-07 12:21 | 47.79956 | 106.67523 | 11120 ft | 366 kts | 134° |
| 2026-05-07 12:21 | 47.78004 | 106.69965 | 11583 ft | 373 kts | 144° |
| 2026-05-07 12:22 | 47.75808 | 106.72099 | 12151 ft | 377 kts | 148° |
| 2026-05-07 12:22 | 47.73561 | 106.74136 | 12631 ft | 382 kts | 149° |
| 2026-05-07 12:22 | 47.71288 | 106.76125 | 13156 ft | 385 kts | 149° |
| 2026-05-07 12:22 | 47.68923 | 106.78083 | 13611 ft | 390 kts | 154° |
| 2026-05-07 12:23 | 47.66419 | 106.79525 | 14057 ft | 394 kts | 168° |
| 2026-05-07 12:23 | 47.63701 | 106.79749 | 14522 ft | 393 kts | 191° |
| 2026-05-07 12:23 | 47.61051 | 106.78788 | 15064 ft | 391 kts | 201° |
| 2026-05-07 12:23 | 47.58564 | 106.77277 | 15374 ft | 394 kts | 211° |
| 2026-05-07 12:24 | 47.56169 | 106.75329 | 15935 ft | 393 kts | 213° |
| 2026-05-07 12:24 | 47.53747 | 106.73355 | 16274 ft | 399 kts | 212° |
| 2026-05-07 12:24 | 47.51323 | 106.71439 | 16786 ft | 399 kts | 212° |
| 2026-05-07 12:24 | 47.48854 | 106.69486 | 17168 ft | 403 kts | 213° |
| 2026-05-07 12:25 | 47.46417 | 106.67552 | 17580 ft | 405 kts | 213° |
| 2026-05-07 12:25 | 47.43910 | 106.65567 | 18006 ft | 406 kts | 213° |
| 2026-05-07 12:25 | 47.41429 | 106.63605 | 18395 ft | 409 kts | 213° |
| 2026-05-07 12:25 | 47.38937 | 106.61637 | 18782 ft | 410 kts | 213° |
| 2026-05-07 12:26 | 47.36433 | 106.59662 | 19158 ft | 412 kts | 214° |
| 2026-05-07 12:26 | 47.33884 | 106.57653 | 19516 ft | 414 kts | 214° |
| 2026-05-07 12:26 | 47.31364 | 106.55669 | 19890 ft | 416 kts | 214° |
| 2026-05-07 12:26 | 47.28818 | 106.53667 | 20216 ft | 418 kts | 214° |
| 2026-05-07 12:27 | 47.26263 | 106.51660 | 20605 ft | 418 kts | 214° |
| 2026-05-07 12:27 | 47.23698 | 106.49649 | 20955 ft | 419 kts | 215° |
| 2026-05-07 12:27 | 47.21107 | 106.47617 | 21277 ft | 421 kts | 215° |
| 2026-05-07 12:27 | 47.18541 | 106.45609 | 21591 ft | 422 kts | 215° |
| 2026-05-07 12:28 | 47.15945 | 106.43578 | 21909 ft | 423 kts | 215° |
| 2026-05-07 12:28 | 47.13374 | 106.41570 | 22237 ft | 424 kts | 215° |
| 2026-05-07 12:28 | 47.10767 | 106.39536 | 22507 ft | 426 kts | 216° |
| 2026-05-07 12:28 | 47.08165 | 106.37509 | 22809 ft | 427 kts | 216° |
| 2026-05-07 12:29 | 47.05520 | 106.35450 | 23090 ft | 428 kts | 216° |
| 2026-05-07 12:29 | 47.02885 | 106.33401 | 23352 ft | 430 kts | 215° |
| 2026-05-07 12:29 | 47.00277 | 106.31374 | 23599 ft | 432 kts | 215° |
| 2026-05-07 12:29 | 46.97606 | 106.29302 | 23837 ft | 434 kts | 215° |
| 2026-05-07 12:30 | 46.94935 | 106.27232 | 24099 ft | 435 kts | 215° |
| 2026-05-07 12:30 | 46.92363 | 106.25242 | 24293 ft | 437 kts | 214° |
| 2026-05-07 12:30 | 46.89698 | 106.23181 | 24530 ft | 439 kts | 214° |
| 2026-05-07 12:30 | 46.86995 | 106.21094 | 24764 ft | 440 kts | 214° |
| 2026-05-07 12:31 | 46.84280 | 106.19001 | 25021 ft | 440 kts | 215° |
| 2026-05-07 12:31 | 46.81596 | 106.16933 | 25230 ft | 441 kts | 215° |
| 2026-05-07 12:31 | 46.78874 | 106.14838 | 25466 ft | 442 kts | 215° |
| 2026-05-07 12:31 | 46.76172 | 106.12762 | 25687 ft | 442 kts | 215° |
| 2026-05-07 12:32 | 46.73434 | 106.10660 | 25916 ft | 443 kts | 215° |
| 2026-05-07 12:32 | 46.70716 | 106.08575 | 26147 ft | 443 kts | 215° |
| 2026-05-07 12:32 | 46.68003 | 106.06497 | 26323 ft | 444 kts | 215° |
| 2026-05-07 12:32 | 46.65271 | 106.04406 | 26543 ft | 444 kts | 215° |
| 2026-05-07 12:33 | 46.59818 | 106.00241 | 26921 ft | 445 kts | 216° |
| 2026-05-07 12:33 | 46.57073 | 105.98148 | 27126 ft | 446 kts | 216° |
| 2026-05-07 12:33 | 46.54367 | 105.96087 | 27277 ft | 447 kts | 216° |
| 2026-05-07 12:34 | 46.51593 | 105.93977 | 27479 ft | 446 kts | 216° |
| 2026-05-07 12:34 | 46.48859 | 105.91900 | 27657 ft | 447 kts | 216° |
| 2026-05-07 12:34 | 46.46122 | 105.89822 | 27829 ft | 447 kts | 216° |
| 2026-05-07 12:34 | 46.43361 | 105.87730 | 28004 ft | 447 kts | 216° |
| 2026-05-07 12:35 | 46.40630 | 105.85661 | 28151 ft | 448 kts | 216° |
| 2026-05-07 12:35 | 46.37859 | 105.83566 | 28311 ft | 448 kts | 216° |
| 2026-05-07 12:35 | 46.35138 | 105.81512 | 28489 ft | 447 kts | 216° |
| 2026-05-07 12:35 | 46.32375 | 105.79427 | 28593 ft | 449 kts | 216° |
| 2026-05-07 12:36 | 46.29616 | 105.77348 | 28752 ft | 449 kts | 216° |
| 2026-05-07 12:36 | 46.26836 | 105.75255 | 28897 ft | 449 kts | 216° |
| 2026-05-07 12:36 | 46.24097 | 105.73195 | 29022 ft | 449 kts | 216° |
| 2026-05-07 12:36 | 46.21316 | 105.71107 | 29172 ft | 449 kts | 216° |
| 2026-05-07 12:37 | 46.18582 | 105.69057 | 29288 ft | 449 kts | 216° |
| 2026-05-07 12:37 | 46.15797 | 105.66969 | 29357 ft | 450 kts | 216° |
| 2026-05-07 12:37 | 46.13018 | 105.64889 | 29499 ft | 449 kts | 216° |
| 2026-05-07 12:37 | 46.10276 | 105.62841 | 29600 ft | 448 kts | 216° |
| 2026-05-07 12:38 | 46.07530 | 105.60792 | 29715 ft | 446 kts | 216° |
| 2026-05-07 12:38 | 46.04801 | 105.58758 | 29843 ft | 444 kts | 216° |
| 2026-05-07 12:38 | 45.99330 | 105.54682 | 29971 ft | 444 kts | 216° |
| 2026-05-07 12:39 | 45.93854 | 105.50614 | 30190 ft | 441 kts | 216° |
| 2026-05-07 12:39 | 45.91138 | 105.48600 | 30305 ft | 440 kts | 216° |
| 2026-05-07 12:39 | 45.88423 | 105.46587 | 30359 ft | 441 kts | 216° |
| 2026-05-07 12:40 | 45.85722 | 105.44588 | 30491 ft | 439 kts | 216° |
| 2026-05-07 12:40 | 45.83028 | 105.42600 | 30696 ft | 436 kts | 217° |
| 2026-05-07 12:40 | 45.77632 | 105.38616 | 30894 ft | 435 kts | 217° |
| 2026-05-07 12:41 | 45.74967 | 105.36655 | 31064 ft | 433 kts | 217° |
| 2026-05-07 12:41 | 45.72299 | 105.34692 | 31145 ft | 434 kts | 216° |
| 2026-05-07 12:41 | 45.69631 | 105.32729 | 31297 ft | 433 kts | 216° |
| 2026-05-07 12:41 | 45.66967 | 105.30773 | 31490 ft | 431 kts | 216° |
| 2026-05-07 12:42 | 45.64307 | 105.28822 | 31645 ft | 430 kts | 216° |
| 2026-05-07 12:42 | 45.61649 | 105.26874 | 31753 ft | 430 kts | 216° |
| 2026-05-07 12:42 | 45.59008 | 105.24940 | 31938 ft | 428 kts | 216° |
| 2026-05-07 12:42 | 45.56382 | 105.23022 | 32118 ft | 426 kts | 216° |
| 2026-05-07 12:43 | 45.53760 | 105.21106 | 32228 ft | 426 kts | 216° |
| 2026-05-07 12:43 | 45.51128 | 105.19183 | 32344 ft | 425 kts | 216° |
| 2026-05-07 12:43 | 45.48482 | 105.17256 | 32541 ft | 423 kts | 216° |
| 2026-05-07 12:43 | 45.45889 | 105.15372 | 32801 ft | 419 kts | 216° |
| 2026-05-07 12:44 | 45.40812 | 105.11674 | 33040 ft | 417 kts | 216° |
| 2026-05-07 12:44 | 45.38245 | 105.09811 | 33221 ft | 415 kts | 216° |
| 2026-05-07 12:44 | 45.35704 | 105.07967 | 33299 ft | 415 kts | 216° |
| 2026-05-07 12:45 | 45.30564 | 105.04237 | 33475 ft | 415 kts | 216° |
| 2026-05-07 12:45 | 45.25424 | 105.00525 | 33646 ft | 415 kts | 216° |
| 2026-05-07 12:46 | 45.22859 | 104.98682 | 33751 ft | 414 kts | 216° |
| 2026-05-07 12:46 | 45.20308 | 104.96858 | 33895 ft | 413 kts | 216° |
| 2026-05-07 12:46 | 45.15199 | 104.93183 | 34047 ft | 412 kts | 216° |
| 2026-05-07 12:47 | 45.10116 | 104.89506 | 34203 ft | 412 kts | 216° |
| 2026-05-07 12:47 | 45.07577 | 104.87680 | 34307 ft | 411 kts | 216° |
| 2026-05-07 12:47 | 45.05040 | 104.85867 | 34463 ft | 409 kts | 215° |
| 2026-05-07 12:48 | 44.99982 | 104.82262 | 34608 ft | 408 kts | 215° |
| 2026-05-07 12:48 | 44.97467 | 104.80478 | 34711 ft | 407 kts | 215° |
| 2026-05-07 12:48 | 44.94942 | 104.78687 | 34790 ft | 406 kts | 215° |
| 2026-05-07 12:49 | 44.89935 | 104.75118 | 34958 ft | 404 kts | 215° |
| 2026-05-07 12:49 | 44.84917 | 104.71494 | 35117 ft | 403 kts | 215° |
| 2026-05-07 12:50 | 44.79951 | 104.67945 | 35260 ft | 402 kts | 215° |
| 2026-05-07 12:50 | 44.74965 | 104.64430 | 35394 ft | 402 kts | 215° |
| 2026-05-07 12:51 | 44.69996 | 104.60945 | 35518 ft | 401 kts | 215° |
| 2026-05-07 12:51 | 44.65024 | 104.57455 | 35663 ft | 399 kts | 215° |
| 2026-05-07 12:52 | 44.60099 | 104.53982 | 35799 ft | 398 kts | 215° |
| 2026-05-07 12:52 | 44.55180 | 104.50522 | 35918 ft | 397 kts | 215° |
| 2026-05-07 12:53 | 44.50261 | 104.47060 | 36084 ft | 394 kts | 215° |
| 2026-05-07 12:53 | 44.45395 | 104.43607 | 36122 ft | 395 kts | 215° |
| 2026-05-07 12:54 | 44.40488 | 104.40163 | 36121 ft | 397 kts | 215° |
| 2026-05-07 12:54 | 44.35538 | 104.36734 | 36121 ft | 399 kts | 215° |
| 2026-05-07 12:55 | 44.30573 | 104.33287 | 36119 ft | 401 kts | 214° |
| 2026-05-07 12:55 | 44.25572 | 104.29806 | 36119 ft | 403 kts | 214° |
| 2026-05-07 12:56 | 44.20584 | 104.26312 | 36120 ft | 404 kts | 214° |
| 2026-05-07 12:56 | 44.15579 | 104.22833 | 36118 ft | 403 kts | 214° |
| 2026-05-07 12:57 | 44.10563 | 104.19363 | 36120 ft | 403 kts | 214° |
| 2026-05-07 12:57 | 44.05546 | 104.15922 | 36120 ft | 404 kts | 214° |
| 2026-05-07 12:58 | 44.00512 | 104.12495 | 36118 ft | 404 kts | 214° |
| 2026-05-07 12:58 | 43.95501 | 104.09045 | 36121 ft | 404 kts | 214° |
| 2026-05-07 12:59 | 43.90517 | 104.05589 | 36119 ft | 402 kts | 214° |
| 2026-05-07 12:59 | 43.85508 | 104.02142 | 36120 ft | 402 kts | 214° |
| 2026-05-07 13:00 | 43.80531 | 103.98727 | 36121 ft | 403 kts | 214° |
| 2026-05-07 13:00 | 43.75489 | 103.95294 | 36120 ft | 405 kts | 214° |
| 2026-05-07 13:01 | 43.70438 | 103.91903 | 36118 ft | 404 kts | 214° |
| 2026-05-07 13:01 | 43.65437 | 103.88518 | 36121 ft | 403 kts | 214° |
| 2026-05-07 13:02 | 43.60445 | 103.85086 | 36121 ft | 403 kts | 214° |
| 2026-05-07 13:02 | 43.55428 | 103.81667 | 36119 ft | 404 kts | 214° |
| 2026-05-07 13:03 | 43.50407 | 103.78258 | 36121 ft | 403 kts | 214° |
| 2026-05-07 13:03 | 43.45385 | 103.74859 | 36120 ft | 404 kts | 214° |
| 2026-05-07 13:04 | 43.40363 | 103.71481 | 36119 ft | 403 kts | 214° |
| 2026-05-07 13:04 | 43.35322 | 103.68104 | 36120 ft | 402 kts | 214° |
| 2026-05-07 13:05 | 43.30308 | 103.64768 | 36118 ft | 403 kts | 214° |
| 2026-05-07 13:05 | 43.25275 | 103.61444 | 36120 ft | 403 kts | 214° |
| 2026-05-07 13:06 | 43.20264 | 103.58080 | 36119 ft | 404 kts | 214° |
| 2026-05-07 13:06 | 43.15229 | 103.54703 | 36120 ft | 403 kts | 214° |
| 2026-05-07 13:07 | 43.10199 | 103.51386 | 36119 ft | 404 kts | 214° |
| 2026-05-07 13:07 | 43.05169 | 103.48053 | 36120 ft | 403 kts | 214° |
| 2026-05-07 13:08 | 43.00146 | 103.44696 | 36120 ft | 402 kts | 214° |
| 2026-05-07 13:08 | 42.95146 | 103.41409 | 36119 ft | 400 kts | 214° |
| 2026-05-07 13:09 | 42.90158 | 103.38103 | 36119 ft | 398 kts | 214° |
| 2026-05-07 13:09 | 42.85200 | 103.34834 | 36131 ft | 396 kts | 213° |
| 2026-05-07 13:10 | 42.80264 | 103.31580 | 36167 ft | 398 kts | 213° |
| 2026-05-07 13:10 | 42.75283 | 103.28306 | 36222 ft | 398 kts | 213° |
| 2026-05-07 13:11 | 42.70338 | 103.25062 | 36288 ft | 398 kts | 213° |
| 2026-05-07 13:11 | 42.65359 | 103.21801 | 36323 ft | 398 kts | 213° |
| 2026-05-07 13:12 | 42.60410 | 103.18565 | 36336 ft | 398 kts | 213° |
| 2026-05-07 13:12 | 42.55439 | 103.15322 | 36336 ft | 398 kts | 213° |
| 2026-05-07 13:13 | 42.50437 | 103.12064 | 36336 ft | 399 kts | 213° |
| 2026-05-07 13:13 | 42.45445 | 103.08817 | 36337 ft | 399 kts | 213° |
| 2026-05-07 13:14 | 42.40470 | 103.05589 | 36365 ft | 400 kts | 213° |
| 2026-05-07 13:14 | 42.35468 | 103.02348 | 36363 ft | 400 kts | 213° |
| 2026-05-07 13:15 | 42.30464 | 102.99112 | 36363 ft | 401 kts | 212° |
| 2026-05-07 13:15 | 42.25444 | 102.95871 | 36363 ft | 401 kts | 212° |
| 2026-05-07 13:16 | 42.20448 | 102.92651 | 36363 ft | 401 kts | 212° |
| 2026-05-07 13:16 | 42.15426 | 102.89421 | 36363 ft | 401 kts | 212° |
| 2026-05-07 13:17 | 42.10414 | 102.86202 | 36363 ft | 401 kts | 212° |
| 2026-05-07 13:17 | 42.05209 | 102.83399 | 36362 ft | 411 kts | 200° |
| 2026-05-07 13:18 | 42.02339 | 102.82966 | 36363 ft | 425 kts | 187° |
| 2026-05-07 13:18 | 41.99395 | 102.83411 | 36365 ft | 439 kts | 176° |
| 2026-05-07 13:18 | 41.93460 | 102.85744 | 36363 ft | 446 kts | 172° |
| 2026-05-07 13:19 | 41.87533 | 102.88069 | 36363 ft | 445 kts | 173° |
| 2026-05-07 13:19 | 41.81601 | 102.90403 | 36363 ft | 445 kts | 172° |
| 2026-05-07 13:20 | 41.75708 | 102.92738 | 36363 ft | 445 kts | 172° |
| 2026-05-07 13:20 | 41.69797 | 102.95080 | 36363 ft | 445 kts | 172° |
| 2026-05-07 13:21 | 41.63873 | 102.97407 | 36362 ft | 444 kts | 174° |
| 2026-05-07 13:21 | 41.57901 | 102.98813 | 36362 ft | 430 kts | 186° |
| 2026-05-07 13:22 | 41.52013 | 102.98834 | 36363 ft | 426 kts | 189° |
| 2026-05-07 13:22 | 41.46098 | 102.98852 | 36361 ft | 426 kts | 188° |
| 2026-05-07 13:23 | 41.40195 | 102.98837 | 36363 ft | 426 kts | 189° |
| 2026-05-07 13:23 | 41.34287 | 102.98803 | 36363 ft | 425 kts | 188° |
| 2026-05-07 13:24 | 41.28400 | 102.98840 | 36362 ft | 426 kts | 188° |
| 2026-05-07 13:24 | 41.22493 | 102.98874 | 36363 ft | 426 kts | 188° |
| 2026-05-07 13:25 | 41.16589 | 102.98899 | 36363 ft | 426 kts | 188° |
| 2026-05-07 13:25 | 41.10710 | 102.98924 | 36363 ft | 426 kts | 188° |
| 2026-05-07 13:26 | 41.04813 | 102.98948 | 36363 ft | 425 kts | 188° |
| 2026-05-07 13:26 | 40.98910 | 102.98972 | 36362 ft | 422 kts | 188° |
| 2026-05-07 13:27 | 40.93108 | 102.98995 | 36363 ft | 420 kts | 188° |
| 2026-05-07 13:27 | 40.87273 | 102.99014 | 36363 ft | 421 kts | 188° |
| 2026-05-07 13:28 | 40.81424 | 102.99036 | 36363 ft | 422 kts | 188° |
| 2026-05-07 13:28 | 40.75565 | 102.99058 | 36363 ft | 421 kts | 188° |
| 2026-05-07 13:29 | 40.69748 | 102.99080 | 36363 ft | 421 kts | 188° |
| 2026-05-07 13:29 | 40.63911 | 102.99101 | 36363 ft | 422 kts | 188° |
| 2026-05-07 13:30 | 40.58066 | 102.99123 | 36362 ft | 421 kts | 188° |
| 2026-05-07 13:30 | 40.52244 | 102.99146 | 36363 ft | 420 kts | 188° |
| 2026-05-07 13:31 | 40.46424 | 102.99167 | 36363 ft | 420 kts | 188° |
| 2026-05-07 13:31 | 40.40560 | 102.99187 | 36363 ft | 421 kts | 188° |
| 2026-05-07 13:32 | 40.34747 | 102.99209 | 36364 ft | 421 kts | 188° |
| 2026-05-07 13:32 | 40.28924 | 102.99231 | 36363 ft | 421 kts | 188° |
| 2026-05-07 13:33 | 40.23080 | 102.99252 | 36364 ft | 421 kts | 188° |
| 2026-05-07 13:33 | 40.17271 | 102.99274 | 36362 ft | 420 kts | 188° |
| 2026-05-07 13:34 | 40.08494 | 102.99305 | 36363 ft | 421 kts | 188° |
| 2026-05-07 13:35 | 40.02690 | 102.99326 | 36363 ft | 421 kts | 188° |
| 2026-05-07 13:35 | 39.96856 | 102.99348 | 36363 ft | 421 kts | 188° |
| 2026-05-07 13:36 | 39.91011 | 102.99369 | 36363 ft | 421 kts | 188° |
| 2026-05-07 13:36 | 39.85166 | 102.99391 | 36362 ft | 420 kts | 188° |
| 2026-05-07 13:37 | 39.79361 | 102.99411 | 36363 ft | 421 kts | 188° |
| 2026-05-07 13:37 | 39.73511 | 102.99432 | 36362 ft | 421 kts | 188° |
| 2026-05-07 13:38 | 39.67686 | 102.99453 | 36363 ft | 421 kts | 188° |
| 2026-05-07 13:38 | 39.61860 | 102.99475 | 36362 ft | 421 kts | 188° |
| 2026-05-07 13:39 | 39.56022 | 102.99496 | 36363 ft | 420 kts | 188° |
| 2026-05-07 13:39 | 39.50230 | 102.99516 | 36364 ft | 420 kts | 188° |
| 2026-05-07 13:40 | 39.44389 | 102.99535 | 36363 ft | 421 kts | 188° |
| 2026-05-07 13:40 | 39.38532 | 102.99647 | 36362 ft | 425 kts | 184° |
| 2026-05-07 13:41 | 39.32695 | 103.01386 | 36366 ft | 446 kts | 166° |
| 2026-05-07 13:41 | 39.27041 | 103.04693 | 36362 ft | 448 kts | 165° |
| 2026-05-07 13:42 | 39.21370 | 103.07917 | 36363 ft | 447 kts | 166° |
| 2026-05-07 13:42 | 39.15704 | 103.11158 | 36363 ft | 446 kts | 165° |
| 2026-05-07 13:43 | 39.10061 | 103.14394 | 36363 ft | 446 kts | 166° |
| 2026-05-07 13:43 | 39.04430 | 103.17620 | 36363 ft | 445 kts | 166° |
| 2026-05-07 13:44 | 38.98791 | 103.20850 | 36363 ft | 443 kts | 167° |
| 2026-05-07 13:44 | 38.93188 | 103.24052 | 36364 ft | 442 kts | 167° |
| 2026-05-07 13:45 | 38.87593 | 103.27247 | 36362 ft | 441 kts | 168° |
| 2026-05-07 13:45 | 38.81995 | 103.30437 | 36363 ft | 441 kts | 168° |
| 2026-05-07 13:46 | 38.76421 | 103.33609 | 36363 ft | 441 kts | 168° |
| 2026-05-07 13:46 | 38.70832 | 103.36784 | 36363 ft | 441 kts | 168° |
| 2026-05-07 13:47 | 38.65258 | 103.39945 | 36363 ft | 441 kts | 168° |
| 2026-05-07 13:47 | 38.59682 | 103.43103 | 36362 ft | 440 kts | 168° |
| 2026-05-07 13:48 | 38.54090 | 103.46263 | 36364 ft | 441 kts | 168° |
| 2026-05-07 13:48 | 38.48489 | 103.49424 | 36364 ft | 441 kts | 168° |
| 2026-05-07 13:49 | 38.42910 | 103.52567 | 36363 ft | 441 kts | 168° |
| 2026-05-07 13:49 | 38.37339 | 103.55701 | 36363 ft | 440 kts | 168° |
| 2026-05-07 13:50 | 38.31722 | 103.58855 | 36363 ft | 440 kts | 168° |
| 2026-05-07 13:50 | 38.26143 | 103.61981 | 36363 ft | 441 kts | 168° |
| 2026-05-07 13:51 | 38.20561 | 103.65103 | 36364 ft | 442 kts | 168° |
| 2026-05-07 13:51 | 38.14975 | 103.68227 | 36362 ft | 439 kts | 168° |
| 2026-05-07 13:52 | 38.09385 | 103.71343 | 36363 ft | 439 kts | 168° |
| 2026-05-07 13:52 | 38.03825 | 103.74437 | 36362 ft | 439 kts | 168° |
| 2026-05-07 13:53 | 37.98263 | 103.77527 | 36363 ft | 441 kts | 168° |
| 2026-05-07 13:53 | 37.92659 | 103.80637 | 36363 ft | 441 kts | 168° |
| 2026-05-07 13:54 | 37.87061 | 103.83739 | 36363 ft | 440 kts | 168° |
| 2026-05-07 13:54 | 37.81456 | 103.86839 | 36363 ft | 440 kts | 168° |
| 2026-05-07 13:55 | 37.75903 | 103.89906 | 36363 ft | 439 kts | 168° |
| 2026-05-07 13:55 | 37.70326 | 103.92978 | 36363 ft | 440 kts | 168° |
| 2026-05-07 13:56 | 37.64720 | 103.96062 | 36362 ft | 440 kts | 168° |
| 2026-05-07 13:56 | 37.59121 | 103.99139 | 36363 ft | 440 kts | 168° |
| 2026-05-07 13:57 | 37.53527 | 104.02209 | 36362 ft | 439 kts | 168° |
| 2026-05-07 13:57 | 37.47972 | 104.05252 | 36363 ft | 440 kts | 168° |
| 2026-05-07 13:58 | 37.42354 | 104.08324 | 36363 ft | 440 kts | 168° |
| 2026-05-07 13:58 | 37.36759 | 104.11381 | 36362 ft | 439 kts | 168° |
| 2026-05-07 13:59 | 37.31178 | 104.14423 | 36362 ft | 439 kts | 168° |
| 2026-05-07 13:59 | 37.25589 | 104.17154 | 36361 ft | 427 kts | 176° |
| 2026-05-07 14:00 | 37.19895 | 104.18596 | 36363 ft | 418 kts | 182° |
| 2026-05-07 14:00 | 37.14151 | 104.19896 | 36362 ft | 420 kts | 181° |
| 2026-05-07 14:01 | 37.08440 | 104.21180 | 36363 ft | 420 kts | 181° |
| 2026-05-07 14:01 | 37.02664 | 104.22443 | 36364 ft | 422 kts | 181° |
| 2026-05-07 14:02 | 36.96876 | 104.23701 | 36362 ft | 426 kts | 181° |
| 2026-05-07 14:02 | 36.91060 | 104.24961 | 36362 ft | 428 kts | 181° |
| 2026-05-07 14:03 | 36.85197 | 104.26232 | 36363 ft | 427 kts | 181° |
| 2026-05-07 14:03 | 36.79369 | 104.27489 | 36364 ft | 427 kts | 181° |